Time;durP1;ratioP1;P1;durP2;ratioP2;P2;SDS_P1;SDS_P2;PMS_P1;PMS_P2;Temp;Humidity;BMP_temperature;BMP_pressure;BME280_temperature;BME280_humidity;BME280_pressure;Samples;Min_cycle;Max_cycle;Signal;HPM_P1;HPM_P2
2023/02/28 00:01:24;;;;;;;6.13;3.67;;;10.00;86.40;;;;;;6303235;22;20046;-76
2023/02/28 00:03:50;;;;;;;5.47;3.50;;;10.00;86.30;;;;;;6279830;22;20086;-75
2023/02/28 00:06:16;;;;;;;5.55;3.70;;;10.00;86.30;;;;;;6308298;22;20362;-74
2023/02/28 00:08:42;;;;;;;7.85;3.75;;;10.00;85.90;;;;;;6308744;22;20003;-76
2023/02/28 00:11:11;;;;;;;8.07;3.38;;;10.00;86.10;;;;;;6308993;22;19999;-75
2023/02/28 00:13:39;;;;;;;5.95;3.78;;;10.00;86.30;;;;;;6280915;22;20015;-75
2023/02/28 00:16:09;;;;;;;5.53;3.42;;;10.00;86.00;;;;;;6307942;22;20007;-74
2023/02/28 00:18:34;;;;;;;6.03;3.35;;;10.10;85.90;;;;;;6308352;22;20428;-75
2023/02/28 00:21:00;;;;;;;5.40;3.65;;;10.20;85.90;;;;;;6308241;22;20082;-76
2023/02/28 00:23:27;;;;;;;6.45;3.50;;;10.20;85.60;;;;;;6308862;22;20076;-75
2023/02/28 00:25:53;;;;;;;3.95;2.75;;;10.20;85.20;;;;;;6307702;22;19999;-75
2023/02/28 00:28:18;;;;;;;5.93;3.28;;;10.20;85.30;;;;;;6307970;22;20368;-75
2023/02/28 00:30:44;;;;;;;5.95;3.60;;;10.20;84.90;;;;;;6308210;22;20344;-75
2023/02/28 00:39:54;;;;;;;6.03;3.83;;;10.30;84.40;;;;;;6307848;22;20478;-76
2023/02/28 00:42:20;;;;;;;5.60;3.60;;;10.30;83.90;;;;;;6308209;22;20019;-76
2023/02/28 00:44:46;;;;;;;5.03;3.03;;;10.30;84.10;;;;;;6308289;22;20029;-76
2023/02/28 00:47:11;;;;;;;4.85;2.90;;;10.30;83.80;;;;;;6308113;22;20022;-75
2023/02/28 00:49:37;;;;;;;8.27;3.60;;;10.30;84.00;;;;;;6308121;22;20042;-75
2023/02/28 00:52:03;;;;;;;5.13;3.00;;;10.30;83.90;;;;;;6307728;22;19995;-75
2023/02/28 00:54:29;;;;;;;5.68;3.47;;;10.30;83.70;;;;;;6308192;22;20000;-76
2023/02/28 00:56:54;;;;;;;7.72;3.15;;;10.20;83.80;;;;;;6307679;22;20090;-75
2023/02/28 00:59:21;;;;;;;5.40;3.38;;;10.10;83.90;;;;;;6308079;22;20007;-75
2023/02/28 01:01:47;;;;;;;5.88;3.38;;;10.00;83.80;;;;;;6307978;22;20022;-75
2023/02/28 01:04:13;;;;;;;5.40;3.22;;;10.00;84.10;;;;;;6280663;22;20003;-76
2023/02/28 01:06:39;;;;;;;5.15;3.20;;;10.00;84.20;;;;;;6307460;22;20045;-75
2023/02/28 01:09:06;;;;;;;5.45;3.22;;;10.00;84.50;;;;;;6307629;22;20462;-75
2023/02/28 01:11:33;;;;;;;5.72;3.17;;;10.00;84.50;;;;;;6307369;22;20400;-75
2023/02/28 01:13:59;;;;;;;5.63;3.35;;;10.10;84.30;;;;;;6280240;22;20015;-74
2023/02/28 01:16:24;;;;;;;7.20;3.30;;;10.00;83.90;;;;;;6280269;22;20345;-75
2023/02/28 01:18:50;;;;;;;5.90;3.30;;;10.00;84.00;;;;;;6307813;22;20033;-75
2023/02/28 01:21:18;;;;;;;6.22;3.65;;;10.00;84.10;;;;;;6307465;22;20003;-75
2023/02/28 01:23:45;;;;;;;5.03;3.35;;;10.00;84.10;;;;;;6307912;22;19999;-75
2023/02/28 01:26:17;;;;;;;4.90;3.05;;;9.90;84.70;;;;;;6318304;22;19999;-76
2023/02/28 01:28:43;;;;;;;5.70;3.38;;;9.80;84.80;;;;;;6325266;22;20068;-74
2023/02/28 01:31:10;;;;;;;5.50;3.38;;;9.90;85.20;;;;;;6314588;22;19999;-75
2023/02/28 01:33:37;;;;;;;5.38;3.22;;;9.80;85.30;;;;;;6308335;22;20094;-75
2023/02/28 01:36:05;;;;;;;7.63;3.03;;;9.80;85.10;;;;;;6307917;22;20387;-75
2023/02/28 01:38:31;;;;;;;5.95;3.13;;;9.80;84.70;;;;;;6280044;22;20007;-74
2023/02/28 01:40:57;;;;;;;4.97;3.38;;;9.80;85.00;;;;;;6307437;22;20007;-74
2023/02/28 01:43:26;;;;;;;5.55;3.63;;;9.80;85.30;;;;;;6280220;22;20018;-74
2023/02/28 01:45:56;;;;;;;4.75;3.00;;;9.80;85.00;;;;;;6307418;22;20421;-75
2023/02/28 01:48:30;;;;;;;5.80;3.30;;;9.80;85.10;;;;;;6307361;22;19999;-75
2023/02/28 01:50:59;;;;;;;5.50;3.55;;;9.80;84.60;;;;;;6307220;22;20026;-75
2023/02/28 01:53:32;;;;;;;7.18;3.63;;;9.70;85.10;;;;;;6277492;22;20094;-74
2023/02/28 01:55:58;;;;;;;5.80;3.60;;;9.70;85.40;;;;;;6307538;22;20453;-74
2023/02/28 01:58:24;;;;;;;5.40;3.67;;;9.70;85.30;;;;;;6307381;22;19999;-75
2023/02/28 02:00:50;;;;;;;5.60;3.65;;;9.70;85.50;;;;;;6307413;22;20015;-75
2023/02/28 02:03:19;;;;;;;7.15;3.45;;;9.70;85.40;;;;;;6307417;22;20010;-75
2023/02/28 02:05:48;;;;;;;6.15;3.38;;;9.70;85.30;;;;;;6307301;22;20005;-74
2023/02/28 02:08:18;;;;;;;5.55;3.80;;;9.70;85.60;;;;;;6307498;22;20004;-76
2023/02/28 02:10:49;;;;;;;6.47;3.40;;;9.70;85.60;;;;;;6307471;22;20409;-74
2023/02/28 02:13:33;;;;;;;6.00;3.45;;;9.70;85.70;;;;;;6307488;22;20011;-75
2023/02/28 02:16:40;;;;;;;5.80;3.80;;;9.70;85.60;;;;;;6307119;22;20084;-75
2023/02/28 02:19:43;;;;;;;7.43;3.65;;;9.60;85.10;;;;;;6245863;22;20011;-75
2023/02/28 02:22:12;;;;;;;6.32;3.25;;;9.60;85.20;;;;;;6279772;22;19999;-75
2023/02/28 02:24:50;;;;;;;5.55;3.70;;;9.60;85.50;;;;;;6307106;22;20000;-75
2023/02/28 02:27:27;;;;;;;7.35;3.53;;;9.50;85.70;;;;;;6307026;22;20050;-74
2023/02/28 02:30:20;;;;;;;5.85;3.33;;;9.60;85.20;;;;;;6307085;22;19995;-74
2023/02/28 02:33:04;;;;;;;6.00;3.95;;;9.60;85.20;;;;;;6307156;22;20437;-75
2023/02/28 02:35:42;;;;;;;5.38;3.30;;;9.60;84.80;;;;;;6306925;22;19995;-75
2023/02/28 02:38:36;;;;;;;6.78;3.65;;;9.60;84.90;;;;;;6306882;22;20467;-75
2023/02/28 02:41:07;;;;;;;4.93;3.15;;;9.50;84.90;;;;;;6279548;22;19995;-76
2023/02/28 02:43:46;;;;;;;6.22;3.88;;;9.40;85.70;;;;;;6306574;22;20011;-73
2023/02/28 02:46:22;;;;;;;5.97;3.45;;;9.40;86.00;;;;;;6279316;22;20042;-75
2023/02/28 02:48:49;;;;;;;6.05;3.63;;;9.40;85.90;;;;;;6306380;22;20010;-75
2023/02/28 02:51:18;;;;;;;5.78;3.60;;;9.50;86.20;;;;;;6306838;22;19995;-78
2023/02/28 02:54:07;;;;;;;5.20;3.33;;;9.50;86.20;;;;;;6279392;22;20004;-76
2023/02/28 02:56:34;;;;;;;5.65;3.63;;;9.50;85.60;;;;;;6287659;22;20015;-76
2023/02/28 02:59:04;;;;;;;5.25;3.47;;;9.50;86.00;;;;;;6306927;22;20376;-75
2023/02/28 03:01:31;;;;;;;5.35;3.30;;;9.40;85.80;;;;;;6306419;22;20514;-74
2023/02/28 03:04:08;;;;;;;5.13;3.13;;;9.50;86.10;;;;;;6306574;22;20026;-76
2023/02/28 03:09:57;;;;;;;4.70;3.20;;;9.40;85.10;;;;;;6306220;22;20014;-75
2023/02/28 03:12:33;;;;;;;5.35;3.20;;;9.40;85.80;;;;;;6306571;22;20011;-76
2023/02/28 03:15:37;;;;;;;5.50;3.20;;;9.40;86.40;;;;;;6278842;22;20011;-75
2023/02/28 03:18:40;;;;;;;7.50;3.78;;;9.40;85.10;;;;;;6279767;22;20042;-75
2023/02/28 03:21:15;;;;;;;4.55;3.22;;;9.50;85.90;;;;;;6277954;22;20018;-75
2023/02/28 03:23:53;;;;;;;5.13;3.03;;;9.40;84.80;;;;;;6306336;22;19995;-75
2023/02/28 03:26:24;;;;;;;5.18;3.38;;;9.40;85.70;;;;;;6278965;22;20445;-75
2023/02/28 03:29:03;;;;;;;5.43;2.92;;;9.40;85.10;;;;;;6306696;22;19999;-75
2023/02/28 03:31:59;;;;;;;5.57;3.25;;;9.30;85.80;;;;;;6306659;22;20030;-74
2023/02/28 03:34:41;;;;;;;5.10;3.50;;;9.30;85.10;;;;;;6303939;22;20420;-76
2023/02/28 03:37:19;;;;;;;4.57;3.20;;;9.20;85.60;;;;;;6278884;22;20059;-76
2023/02/28 03:39:48;;;;;;;6.15;3.10;;;9.10;85.80;;;;;;6308424;22;20002;-74
2023/02/28 03:42:20;;;;;;;6.32;3.17;;;9.10;85.90;;;;;;6308676;22;20003;-74
2023/02/28 03:44:53;;;;;;;8.25;2.95;;;9.10;85.10;;;;;;6308241;22;20379;-74
2023/02/28 03:47:28;;;;;;;6.35;3.10;;;9.00;85.70;;;;;;6308487;22;19999;-75
2023/02/28 03:50:02;;;;;;;5.78;3.20;;;9.10;86.20;;;;;;6281090;22;20003;-74
2023/02/28 03:52:34;;;;;;;6.57;3.90;;;9.10;85.00;;;;;;6308418;22;20009;-75
2023/02/28 03:55:08;;;;;;;6.90;3.47;;;9.00;85.80;;;;;;6308268;22;20026;-74
2023/02/28 03:57:39;;;;;;;10.02;3.58;;;9.00;85.50;;;;;;6308389;22;20007;-73
2023/02/28 04:00:19;;;;;;;5.93;3.08;;;9.00;85.10;;;;;;6280734;22;20125;-75
2023/02/28 04:02:45;;;;;;;5.57;3.08;;;9.00;85.70;;;;;;6308453;22;20317;-75
2023/02/28 04:05:11;;;;;;;5.45;3.20;;;9.10;85.70;;;;;;6308387;22;19996;-74
2023/02/28 04:07:37;;;;;;;5.40;2.83;;;9.20;85.60;;;;;;6308112;22;19999;-75
2023/02/28 04:10:04;;;;;;;5.85;2.90;;;9.20;85.10;;;;;;6307920;22;20044;-74
2023/02/28 04:12:30;;;;;;;6.53;3.08;;;9.30;84.90;;;;;;6308525;22;20025;-76
2023/02/28 04:14:55;;;;;;;6.15;2.80;;;9.30;84.80;;;;;;6308167;22;20003;-74
2023/02/28 04:17:21;;;;;;;5.88;2.67;;;9.30;84.60;;;;;;6308323;22;20007;-74
2023/02/28 04:19:47;;;;;;;7.53;2.78;;;9.40;84.40;;;;;;6308606;22;20456;-74
2023/02/28 04:22:13;;;;;;;8.15;3.00;;;9.50;84.50;;;;;;6308282;22;19999;-75
2023/02/28 04:24:41;;;;;;;5.10;2.67;;;9.50;84.50;;;;;;6308306;22;20001;-75
2023/02/28 04:27:08;;;;;;;9.30;2.78;;;9.50;84.00;;;;;;6309321;22;20333;-76
2023/02/28 04:29:34;;;;;;;4.47;2.40;;;9.50;84.70;;;;;;6324514;22;20066;-76
2023/02/28 04:32:00;;;;;;;4.47;2.70;;;9.50;83.80;;;;;;6329198;22;20003;-75
2023/02/28 04:34:27;;;;;;;4.88;2.55;;;9.50;83.90;;;;;;6314982;22;20017;-75
2023/02/28 04:36:55;;;;;;;6.70;2.72;;;9.60;84.20;;;;;;6310377;22;20376;-76
2023/02/28 04:39:23;;;;;;;6.18;2.90;;;9.60;83.70;;;;;;6308248;22;20052;-76
2023/02/28 04:41:49;;;;;;;5.75;2.58;;;9.60;83.60;;;;;;6308120;22;20456;-74
2023/02/28 04:44:15;;;;;;;4.05;2.60;;;9.60;83.40;;;;;;6280775;22;20003;-75
2023/02/28 04:46:42;;;;;;;3.85;2.42;;;9.60;83.60;;;;;;6308072;22;20003;-76
2023/02/28 04:49:12;;;;;;;5.80;2.72;;;9.50;83.30;;;;;;6307740;22;20009;-74
2023/02/28 04:51:37;;;;;;;4.93;2.60;;;9.50;83.90;;;;;;6280618;22;20027;-74
2023/02/28 04:54:03;;;;;;;7.80;3.05;;;9.40;83.30;;;;;;6308184;22;20440;-74
2023/02/28 04:56:29;;;;;;;6.32;2.83;;;9.40;83.80;;;;;;6307850;22;20086;-74
2023/02/28 04:58:55;;;;;;;5.20;2.95;;;9.50;83.90;;;;;;6280571;22;20463;-75
2023/02/28 05:01:25;;;;;;;6.15;2.80;;;9.50;83.50;;;;;;6308035;22;20019;-74
2023/02/28 05:03:52;;;;;;;6.05;3.63;;;9.40;83.70;;;;;;6308280;22;19995;-75
2023/02/28 05:06:18;;;;;;;4.88;2.80;;;9.50;83.40;;;;;;6308216;22;20007;-75
2023/02/28 05:08:44;;;;;;;6.05;2.85;;;9.50;83.50;;;;;;6308241;22;20003;-74
2023/02/28 05:11:23;;;;;;;5.65;2.75;;;9.50;83.20;;;;;;6280708;22;20144;-76
2023/02/28 05:13:49;;;;;;;5.57;2.85;;;9.50;83.30;;;;;;6280595;22;20090;-76
2023/02/28 05:16:15;;;;;;;3.92;2.60;;;9.60;83.10;;;;;;6307668;22;20011;-76
2023/02/28 05:18:41;;;;;;;12.27;3.35;;;9.50;82.70;;;;;;6307750;22;19995;-76
2023/02/28 05:21:19;;;;;;;4.85;2.92;;;9.50;82.60;;;;;;6308166;22;20429;-76
2023/02/28 05:23:45;;;;;;;4.15;2.53;;;9.50;82.70;;;;;;6308114;22;19995;-75
2023/02/28 05:26:11;;;;;;;5.47;2.70;;;9.50;82.50;;;;;;6307631;22;20000;-76
2023/02/28 05:28:36;;;;;;;7.40;2.72;;;9.50;82.50;;;;;;6280524;22;20007;-76
2023/02/28 05:31:02;;;;;;;6.65;3.03;;;9.40;82.70;;;;;;6280315;22;20010;-76
2023/02/28 05:33:28;;;;;;;5.07;2.38;;;9.40;82.60;;;;;;6307556;22;20000;-74
2023/02/28 05:35:53;;;;;;;5.22;2.60;;;9.40;82.90;;;;;;6307975;22;19999;-77
2023/02/28 05:38:19;;;;;;;5.10;2.45;;;9.40;82.70;;;;;;6279989;22;20375;-75
2023/02/28 05:40:45;;;;;;;4.63;2.45;;;9.30;82.70;;;;;;6307870;22;20029;-76
2023/02/28 05:43:11;;;;;;;5.50;2.33;;;9.30;82.30;;;;;;6280441;22;20011;-75
2023/02/28 05:45:37;;;;;;;3.85;2.20;;;9.20;82.20;;;;;;6307605;22;20068;-76
2023/02/28 05:48:03;;;;;;;5.07;2.50;;;9.10;82.30;;;;;;6307242;22;20444;-76
2023/02/28 05:50:28;;;;;;;8.05;2.50;;;9.10;82.60;;;;;;6307207;22;20023;-75
2023/02/28 05:52:54;;;;;;;6.90;2.83;;;9.00;82.50;;;;;;6307417;22;20003;-76
2023/02/28 05:55:20;;;;;;;8.38;3.53;;;9.00;82.40;;;;;;6307528;22;19999;-74
2023/02/28 05:57:46;;;;;;;7.10;3.25;;;9.10;82.30;;;;;;6307015;22;20057;-74
2023/02/28 06:00:14;;;;;;;5.93;2.50;;;9.10;82.40;;;;;;6306797;22;20008;-75
2023/02/28 06:02:40;;;;;;;5.90;3.00;;;9.10;82.20;;;;;;6306979;22;19999;-76
2023/02/28 06:05:15;;;;;;;8.77;3.05;;;9.10;82.50;;;;;;6306949;22;20006;-75
2023/02/28 06:07:41;;;;;;;5.60;3.22;;;9.20;81.80;;;;;;6279614;22;20413;-74
2023/02/28 06:10:08;;;;;;;7.85;3.53;;;9.20;81.80;;;;;;6307050;22;19999;-73
2023/02/28 06:12:33;;;;;;;6.68;2.80;;;9.20;82.10;;;;;;6279289;22;20122;-74
2023/02/28 06:14:59;;;;;;;6.20;2.58;;;9.20;82.00;;;;;;6306636;22;20030;-73
2023/02/28 06:17:25;;;;;;;6.43;2.92;;;9.30;81.80;;;;;;6306576;22;20082;-74
2023/02/28 06:19:50;;;;;;;7.57;2.60;;;9.20;81.50;;;;;;6306439;22;20006;-75
2023/02/28 06:22:16;;;;;;;6.68;2.80;;;9.20;81.50;;;;;;6302643;22;20464;-74
2023/02/28 06:24:42;;;;;;;6.28;3.20;;;9.20;81.80;;;;;;6298038;22;19995;-75
2023/02/28 06:27:07;;;;;;;6.57;2.90;;;9.40;82.00;;;;;;6306736;22;20003;-74
2023/02/28 06:29:35;;;;;;;5.03;2.92;;;9.40;81.40;;;;;;6306722;22;20018;-73
2023/02/28 06:32:01;;;;;;;4.88;2.67;;;9.50;81.80;;;;;;6305959;22;20429;-74
2023/02/28 06:34:26;;;;;;;6.15;3.00;;;9.50;81.40;;;;;;6297293;22;20026;-74
2023/02/28 06:36:52;;;;;;;6.22;2.80;;;9.50;81.40;;;;;;6306836;22;20007;-75
2023/02/28 06:39:18;;;;;;;5.55;3.00;;;9.50;81.60;;;;;;6306848;22;19995;-74
2023/02/28 06:41:45;;;;;;;5.57;3.40;;;9.50;81.00;;;;;;6303215;22;20018;-76
2023/02/28 06:44:16;;;;;;;6.65;3.00;;;9.40;81.40;;;;;;6299839;22;20378;-76
2023/02/28 06:46:43;;;;;;;5.65;3.10;;;9.50;81.70;;;;;;6306663;22;20078;-76
2023/02/28 06:49:09;;;;;;;5.32;3.13;;;9.60;81.60;;;;;;6306546;22;20062;-75
2023/02/28 06:51:41;;;;;;;7.32;3.35;;;9.60;81.20;;;;;;6307019;22;20003;-76
2023/02/28 06:54:09;;;;;;;7.10;3.25;;;9.60;80.70;;;;;;6275317;22;20044;-75
2023/02/28 06:56:35;;;;;;;9.65;3.97;;;9.60;81.20;;;;;;6306384;22;20026;-75
2023/02/28 06:59:01;;;;;;;8.93;3.72;;;9.70;81.20;;;;;;6305782;22;20286;-74
2023/02/28 07:01:27;;;;;;;10.10;3.47;;;9.80;81.30;;;;;;6306061;22;20019;-78
2023/02/28 07:03:54;;;;;;;7.53;3.67;;;9.80;81.00;;;;;;6275958;22;20038;-77
2023/02/28 07:06:24;;;;;;;8.25;3.83;;;9.80;81.00;;;;;;6306762;22;20004;-77
2023/02/28 07:08:52;;;;;;;14.93;4.28;;;9.80;81.10;;;;;;6306944;22;20003;-78
2023/02/28 07:11:18;;;;;;;8.48;4.13;;;9.80;81.10;;;;;;6306299;22;20026;-76
2023/02/28 07:13:44;;;;;;;13.35;4.45;;;9.90;81.10;;;;;;6302468;22;20033;-75
2023/02/28 07:16:11;;;;;;;10.80;4.43;;;9.90;80.40;;;;;;6306056;22;20027;-75
2023/02/28 07:18:38;;;;;;;8.55;4.63;;;10.00;79.60;;;;;;6306896;22;20007;-76
2023/02/28 07:21:05;;;;;;;7.45;4.88;;;10.10;79.70;;;;;;6306944;22;20023;-77
2023/02/28 07:23:31;;;;;;;10.25;4.90;;;10.20;78.70;;;;;;6317269;22;20047;-75
2023/02/28 07:25:57;;;;;;;9.68;4.40;;;10.20;78.40;;;;;;6317778;22;20003;-77
2023/02/28 07:28:23;;;;;;;6.90;4.03;;;10.10;78.20;;;;;;6307989;22;20447;-75
2023/02/28 07:30:48;;;;;;;10.35;3.78;;;10.10;78.30;;;;;;6306467;22;20006;-76
2023/02/28 07:33:14;;;;;;;8.90;4.20;;;10.20;78.20;;;;;;6303293;22;20011;-76
2023/02/28 07:35:40;;;;;;;5.43;3.30;;;10.20;78.10;;;;;;6306023;22;19996;-75
2023/02/28 07:38:07;;;;;;;9.57;3.40;;;10.30;78.00;;;;;;6305941;22;20037;-77
2023/02/28 07:40:34;;;;;;;8.82;3.63;;;10.30;77.70;;;;;;6306176;22;20026;-74
2023/02/28 07:43:01;;;;;;;8.05;3.58;;;10.40;77.70;;;;;;6304096;22;20315;-76
2023/02/28 07:45:28;;;;;;;16.33;3.42;;;10.40;77.30;;;;;;6304493;22;19999;-76
2023/02/28 07:47:55;;;;;;;6.18;3.20;;;10.50;77.60;;;;;;6306264;22;19999;-77
2023/02/28 07:50:21;;;;;;;8.73;3.45;;;10.60;77.20;;;;;;6305890;22;20009;-74
2023/02/28 07:52:47;;;;;;;5.75;3.10;;;10.70;76.90;;;;;;6305950;22;20006;-74
2023/02/28 07:55:13;;;;;;;8.40;3.42;;;10.70;76.70;;;;;;6306297;22;20004;-76
2023/02/28 07:57:40;;;;;;;11.48;3.15;;;10.80;76.60;;;;;;6306512;22;20015;-75
2023/02/28 08:00:09;;;;;;;8.80;3.85;;;10.80;76.50;;;;;;6306327;22;20003;-76
2023/02/28 08:02:35;;;;;;;7.22;3.53;;;10.80;76.40;;;;;;6306212;22;20310;-77
2023/02/28 08:05:01;;;;;;;10.98;4.28;;;10.90;76.60;;;;;;6306503;22;19999;-74
2023/02/28 08:07:27;;;;;;;8.02;3.80;;;11.00;76.60;;;;;;6306244;22;20056;-74
2023/02/28 08:09:53;;;;;;;11.18;4.22;;;11.10;76.10;;;;;;6277095;22;20049;-75
2023/02/28 08:12:19;;;;;;;10.27;3.92;;;11.20;76.20;;;;;;6304120;22;20009;-73
2023/02/28 08:14:45;;;;;;;8.40;3.60;;;11.30;75.70;;;;;;6306248;22;20026;-73
2023/02/28 08:17:11;;;;;;;9.18;3.78;;;11.30;75.90;;;;;;6306140;22;20015;-76
2023/02/28 08:19:37;;;;;;;10.18;3.70;;;11.30;75.60;;;;;;6306241;22;20003;-75
2023/02/28 08:22:03;;;;;;;9.10;3.92;;;11.40;75.70;;;;;;6305625;22;20006;-74
2023/02/28 08:24:29;;;;;;;8.98;4.60;;;11.40;75.40;;;;;;6306919;22;20003;-73
2023/02/28 08:26:55;;;;;;;7.90;4.40;;;11.50;75.70;;;;;;6307931;22;20010;-76
2023/02/28 08:29:21;;;;;;;12.23;4.15;;;11.50;75.80;;;;;;6281193;22;20007;-74
2023/02/28 08:31:46;;;;;;;7.95;3.47;;;11.60;75.60;;;;;;6308054;22;20448;-74
2023/02/28 08:34:15;;;;;;;10.57;3.95;;;11.70;75.40;;;;;;6307559;22;20337;-75
2023/02/28 08:36:42;;;;;;;8.38;4.40;;;11.70;75.00;;;;;;6307902;22;20064;-75
2023/02/28 08:39:09;;;;;;;10.75;4.05;;;11.80;75.20;;;;;;6307844;22;20019;-75
2023/02/28 08:41:35;;;;;;;12.27;3.88;;;11.90;75.30;;;;;;6307460;22;20033;-75
2023/02/28 08:44:01;;;;;;;8.70;3.92;;;11.90;75.10;;;;;;6307302;22;20003;-74
2023/02/28 08:46:27;;;;;;;9.27;3.10;;;12.00;75.20;;;;;;6307588;22;20070;-73
2023/02/28 08:48:54;;;;;;;6.45;2.78;;;12.20;74.50;;;;;;6307356;22;20077;-75
2023/02/28 08:51:25;;;;;;;7.47;2.67;;;12.30;74.10;;;;;;6279845;22;20287;-76
2023/02/28 08:53:53;;;;;;;5.20;2.90;;;12.40;73.90;;;;;;6307274;22;20098;-74
2023/02/28 08:56:19;;;;;;;6.45;2.50;;;12.50;73.50;;;;;;6307156;22;20312;-76
2023/02/28 08:58:46;;;;;;;8.45;2.65;;;12.70;72.60;;;;;;6306998;22;20325;-75
2023/02/28 09:01:19;;;;;;;8.98;2.53;;;12.80;72.50;;;;;;6306853;22;20049;-74
2023/02/28 09:03:46;;;;;;;7.57;2.37;;;12.90;72.60;;;;;;6307330;22;20010;-74
2023/02/28 09:06:13;;;;;;;5.00;2.60;;;13.00;71.90;;;;;;6307195;22;19995;-75
2023/02/28 09:08:39;;;;;;;8.65;4.25;;;13.10;71.90;;;;;;6307010;22;20509;-75
2023/02/28 09:11:05;;;;;;;4.65;1.92;;;13.20;71.70;;;;;;6306795;22;20027;-75
2023/02/28 09:13:32;;;;;;;5.20;2.15;;;13.30;71.10;;;;;;6307250;22;20002;-76
2023/02/28 09:15:59;;;;;;;6.40;2.38;;;13.40;70.90;;;;;;6306720;22;20080;-74
2023/02/28 09:18:25;;;;;;;7.30;1.95;;;13.50;70.80;;;;;;6306976;22;20011;-75
2023/02/28 09:20:51;;;;;;;5.95;2.25;;;13.60;70.40;;;;;;6279536;22;20046;-74
2023/02/28 09:23:18;;;;;;;7.20;2.17;;;13.60;69.50;;;;;;6279558;22;20007;-74
2023/02/28 09:25:50;;;;;;;6.65;2.30;;;13.70;69.60;;;;;;6306971;22;20007;-75
2023/02/28 09:28:16;;;;;;;5.07;2.10;;;13.70;69.90;;;;;;6306905;22;19999;-74
2023/02/28 09:30:45;;;;;;;4.78;2.17;;;13.70;69.10;;;;;;6307086;22;20332;-74
2023/02/28 09:33:11;;;;;;;3.90;2.00;;;13.80;68.90;;;;;;6307037;22;20002;-74
2023/02/28 09:35:37;;;;;;;6.53;2.72;;;13.80;68.30;;;;;;6306342;22;20007;-75
2023/02/28 09:38:04;;;;;;;4.93;2.97;;;13.90;67.70;;;;;;6306973;22;20011;-74
2023/02/28 09:40:31;;;;;;;5.63;2.00;;;14.00;67.90;;;;;;6306757;22;20007;-73
2023/02/28 09:42:59;;;;;;;5.93;2.08;;;14.20;67.20;;;;;;6306792;22;20022;-75
2023/02/28 09:45:32;;;;;;;5.40;2.28;;;14.20;67.20;;;;;;6306759;22;20006;-74
2023/02/28 09:48:21;;;;;;;5.53;2.40;;;14.30;66.90;;;;;;6307271;22;20490;-74
2023/02/28 09:50:55;;;;;;;8.10;2.42;;;14.40;66.30;;;;;;6279689;22;20058;-75
2023/02/28 09:53:28;;;;;;;4.72;2.13;;;14.50;66.30;;;;;;6307205;22;19999;-75
2023/02/28 09:56:18;;;;;;;10.05;2.30;;;14.60;66.40;;;;;;6307317;22;20034;-75
2023/02/28 09:58:52;;;;;;;5.57;1.95;;;14.70;66.20;;;;;;6307309;22;20007;-75
2023/02/28 10:01:24;;;;;;;5.32;1.98;;;14.80;64.70;;;;;;6307123;22;20015;-76
2023/02/28 10:03:56;;;;;;;4.97;1.98;;;15.00;64.40;;;;;;6306782;22;20000;-75
2023/02/28 10:06:25;;;;;;;5.25;1.63;;;15.10;64.90;;;;;;6306800;22;20006;-75
2023/02/28 10:09:01;;;;;;;4.45;1.83;;;15.10;63.50;;;;;;6279820;22;20011;-75
2023/02/28 10:11:28;;;;;;;3.60;1.75;;;15.10;63.10;;;;;;6307838;22;20007;-74
2023/02/28 10:14:04;;;;;;;6.25;1.80;;;15.10;63.10;;;;;;6314385;22;20075;-75
2023/02/28 10:16:44;;;;;;;3.83;1.70;;;15.00;62.20;;;;;;6321344;22;20372;-74
2023/02/28 10:19:20;;;;;;;3.65;1.50;;;15.10;62.50;;;;;;6297677;22;20031;-74
2023/02/28 10:21:57;;;;;;;3.03;1.60;;;15.00;63.40;;;;;;6323180;22;19999;-75
2023/02/28 10:24:27;;;;;;;5.15;1.80;;;15.00;62.00;;;;;;6315558;22;20009;-75
2023/02/28 10:26:59;;;;;;;5.07;2.00;;;14.90;62.10;;;;;;6307063;22;20033;-75
2023/02/28 10:29:26;;;;;;;6.93;1.63;;;14.90;62.50;;;;;;6306629;22;20028;-75
2023/02/28 10:31:52;;;;;;;5.75;1.70;;;14.90;62.30;;;;;;6306585;22;20316;-76
2023/02/28 10:34:17;;;;;;;4.32;1.75;;;14.80;61.20;;;;;;6279287;22;20074;-74
2023/02/28 10:36:44;;;;;;;7.18;1.65;;;14.80;61.90;;;;;;6306993;22;20011;-74
2023/02/28 10:39:40;;;;;;;3.38;1.67;;;14.90;61.00;;;;;;6307043;22;20061;-74
2023/02/28 10:42:28;;;;;;;4.78;1.85;;;15.00;61.90;;;;;;6304506;22;20034;-74
2023/02/28 10:45:14;;;;;;;4.78;2.10;;;15.00;60.80;;;;;;6306608;22;20011;-74
2023/02/28 10:47:56;;;;;;;7.32;2.33;;;15.20;61.10;;;;;;6306473;22;20071;-74
2023/02/28 10:50:32;;;;;;;7.63;2.15;;;15.30;61.00;;;;;;6306504;22;20069;-74
2023/02/28 10:53:32;;;;;;;4.90;1.90;;;15.40;60.40;;;;;;6306569;22;20010;-75
2023/02/28 10:56:04;;;;;;;6.63;2.20;;;15.50;60.50;;;;;;6306737;22;20011;-74
2023/02/28 10:58:40;;;;;;;8.17;2.13;;;15.50;60.30;;;;;;6279125;22;20030;-74
2023/02/28 11:01:23;;;;;;;7.75;2.40;;;15.50;59.90;;;;;;6306290;22;20449;-74
2023/02/28 11:03:50;;;;;;;11.13;2.30;;;15.50;60.20;;;;;;6306580;22;20070;-75
2023/02/28 11:06:22;;;;;;;5.07;1.92;;;15.40;60.10;;;;;;6306365;22;20025;-75
2023/02/28 11:09:19;;;;;;;6.15;2.00;;;15.40;60.30;;;;;;6278546;22;20436;-75
2023/02/28 11:11:47;;;;;;;4.70;1.80;;;15.40;60.00;;;;;;6305300;22;20010;-74
2023/02/28 11:14:24;;;;;;;6.80;2.08;;;15.50;60.20;;;;;;6306450;22;20007;-74
2023/02/28 11:16:52;;;;;;;7.22;1.85;;;15.60;60.20;;;;;;6305844;22;20041;-72
2023/02/28 11:19:40;;;;;;;5.13;1.70;;;15.60;59.50;;;;;;6305969;22;20393;-74
2023/02/28 11:22:06;;;;;;;8.63;2.20;;;15.60;59.10;;;;;;6305979;22;20060;-75
2023/02/28 11:24:37;;;;;;;6.68;2.30;;;15.80;58.60;;;;;;6306134;22;20374;-75
2023/02/28 11:27:03;;;;;;;4.50;1.70;;;15.90;58.30;;;;;;6305832;22;20072;-75
2023/02/28 11:29:31;;;;;;;6.47;1.73;;;16.10;58.10;;;;;;6306068;22;20023;-76
2023/02/28 11:32:12;;;;;;;8.13;2.80;;;16.10;57.50;;;;;;6306041;22;20011;-75
2023/02/28 11:34:39;;;;;;;4.63;1.75;;;16.20;57.70;;;;;;6306064;22;20049;-75
2023/02/28 11:37:11;;;;;;;11.35;3.60;;;16.30;56.90;;;;;;6305961;22;20011;-74
2023/02/28 11:39:37;;;;;;;3.35;1.98;;;16.40;56.60;;;;;;6306190;22;20053;-74
2023/02/28 11:42:28;;;;;;;5.07;1.70;;;16.50;57.00;;;;;;6306013;22;20006;-74
2023/02/28 11:45:21;;;;;;;4.38;2.00;;;16.50;56.40;;;;;;6306242;22;20086;-76
2023/02/28 11:48:07;;;;;;;6.85;2.10;;;16.50;56.40;;;;;;6306150;22;19999;-75
2023/02/28 11:50:49;;;;;;;9.43;2.70;;;16.50;56.10;;;;;;6305771;22;20003;-76
2023/02/28 11:53:59;;;;;;;6.30;2.33;;;16.50;56.60;;;;;;6306094;22;19995;-76
2023/02/28 11:56:46;;;;;;;8.48;2.50;;;16.50;56.90;;;;;;6258308;22;20330;-76
2023/02/28 11:59:15;;;;;;;7.70;2.53;;;16.60;57.30;;;;;;6306912;22;19995;-76
2023/02/28 12:02:08;;;;;;;7.88;3.28;;;16.60;56.80;;;;;;6308240;22;20349;-75
2023/02/28 12:04:56;;;;;;;7.77;3.10;;;16.60;57.10;;;;;;6307909;22;20030;-75
2023/02/28 12:08:09;;;;;;;7.68;2.70;;;16.70;56.10;;;;;;6308111;22;20005;-74
2023/02/28 12:11:10;;;;;;;7.05;2.35;;;16.70;57.10;;;;;;6183031;23;20412;-75
2023/02/28 12:13:44;;;;;;;8.73;2.42;;;16.90;57.00;;;;;;6183511;23;20015;-74
2023/02/28 12:16:25;;;;;;;12.65;2.47;;;16.90;54.90;;;;;;6259203;22;20019;-74
2023/02/28 12:18:54;;;;;;;6.43;2.10;;;16.90;55.90;;;;;;6307699;22;20007;-75
2023/02/28 12:21:37;;;;;;;7.10;1.60;;;16.90;55.90;;;;;;6280490;22;20011;-74
2023/02/28 12:24:26;;;;;;;5.75;2.05;;;16.90;54.20;;;;;;6280571;22;20013;-75
2023/02/28 12:26:53;;;;;;;10.02;2.00;;;17.00;54.60;;;;;;6307936;22;20460;-74
2023/02/28 12:29:30;;;;;;;5.63;1.85;;;16.90;53.70;;;;;;6307665;22;20022;-74
2023/02/28 12:32:04;;;;;;;8.32;2.55;;;16.90;53.80;;;;;;6307881;22;20003;-74
2023/02/28 12:34:53;;;;;;;10.00;2.20;;;16.90;53.30;;;;;;6308491;22;20087;-76
2023/02/28 12:37:31;;;;;;;8.07;1.90;;;16.80;52.30;;;;;;6307618;22;20050;-74
2023/02/28 12:40:06;;;;;;;9.50;2.22;;;16.70;52.10;;;;;;6308146;22;20008;-74
2023/02/28 12:42:49;;;;;;;10.73;2.63;;;16.60;52.00;;;;;;6307971;22;19999;-74
2023/02/28 12:45:32;;;;;;;5.95;1.60;;;16.50;52.20;;;;;;6308424;22;20003;-75
2023/02/28 12:48:03;;;;;;;15.07;2.55;;;16.30;52.40;;;;;;6281049;22;20011;-76
2023/02/28 12:50:31;;;;;;;7.95;2.72;;;16.30;52.90;;;;;;6307705;22;19999;-75
2023/02/28 12:53:06;;;;;;;11.18;5.28;;;16.20;52.70;;;;;;6280311;22;20337;-75
2023/02/28 12:55:34;;;;;;;10.77;2.42;;;16.20;54.10;;;;;;6307793;22;20003;-75
2023/02/28 12:58:23;;;;;;;10.15;2.78;;;16.10;53.40;;;;;;6307985;22;20018;-75
2023/02/28 13:01:17;;;;;;;10.05;1.70;;;16.10;53.50;;;;;;6250764;22;20154;-74
2023/02/28 13:04:06;;;;;;;9.88;1.83;;;16.00;55.20;;;;;;6308205;22;19996;-76
2023/02/28 13:07:09;;;;;;;10.32;1.80;;;16.00;56.00;;;;;;6280904;22;20037;-75
2023/02/28 13:09:36;;;;;;;8.30;1.80;;;16.00;56.40;;;;;;6280597;22;20014;-74
2023/02/28 13:12:13;;;;;;;6.97;2.45;;;16.00;56.80;;;;;;6308029;22;20452;-76
2023/02/28 13:14:39;;;;;;;13.18;2.70;;;16.00;57.20;;;;;;6308493;22;19999;-75
2023/02/28 13:17:11;;;;;;;14.27;2.65;;;15.90;57.60;;;;;;6308204;22;20039;-75
2023/02/28 13:19:58;;;;;;;10.23;2.28;;;15.90;57.70;;;;;;6281626;22;20082;-74
2023/02/28 13:22:43;;;;;;;10.27;2.13;;;15.80;57.90;;;;;;6315406;22;20047;-75